Time;durP1;ratioP1;P1;durP2;ratioP2;P2;SDS_P1;SDS_P2;PMS_P1;PMS_P2;Temp;Humidity;BMP_temperature;BMP_pressure;BME280_temperature;BME280_humidity;BME280_pressure;Samples;Min_cycle;Max_cycle;Signal;HPM_P1;HPM_P2
2020/12/02 00:01:39;;;;;;;14.85;1.90;;;7.80;99.90;;;;;;4998892;28;20046;-91
2020/12/02 00:04:12;;;;;;;13.82;2.35;;;7.90;99.90;;;;;;4998871;28;20054;-91
2020/12/02 00:06:44;;;;;;;6.72;1.98;;;7.90;99.90;;;;;;4996526;28;20050;-91
2020/12/02 00:09:19;;;;;;;6.78;3.08;;;7.90;99.90;;;;;;5002119;28;20212;-90
2020/12/02 00:11:48;;;;;;;10.57;2.42;;;7.80;99.90;;;;;;4999528;28;20169;-91
2020/12/02 00:14:26;;;;;;;12.25;2.53;;;7.80;99.90;;;;;;5000241;28;20090;-91
2020/12/02 00:16:56;;;;;;;5.97;2.17;;;7.90;99.90;;;;;;4999151;28;20060;-91
2020/12/02 00:19:26;;;;;;;8.43;2.05;;;7.80;99.90;;;;;;4998599;28;20328;-91
2020/12/02 00:22:07;;;;;;;8.18;1.73;;;7.90;99.90;;;;;;4998718;28;20049;-90
2020/12/02 00:24:37;;;;;;;7.65;2.00;;;7.90;99.90;;;;;;5033659;28;20044;-91
2020/12/02 00:27:15;;;;;;;12.23;2.28;;;7.90;99.90;;;;;;5061231;28;20438;-91
2020/12/02 00:29:47;;;;;;;8.15;2.00;;;7.90;99.90;;;;;;5058622;28;20044;-91
2020/12/02 00:32:38;;;;;;;8.55;2.10;;;7.90;99.90;;;;;;5060323;28;20083;-91
2020/12/02 00:35:13;;;;;;;6.82;1.83;;;7.90;99.90;;;;;;5059546;28;20053;-91
2020/12/02 00:37:43;;;;;;;9.60;1.95;;;7.90;99.90;;;;;;5069061;28;20062;-91
2020/12/02 00:40:29;;;;;;;6.28;2.60;;;7.90;99.90;;;;;;5066470;28;20552;-91
2020/12/02 00:42:58;;;;;;;10.02;2.80;;;7.90;99.90;;;;;;5063634;28;20121;-91
2020/12/02 00:45:28;;;;;;;8.10;1.95;;;7.90;99.90;;;;;;5071605;28;20044;-91
2020/12/02 00:47:57;;;;;;;12.82;3.17;;;7.90;99.90;;;;;;5073318;28;20474;-91
2020/12/02 00:50:27;;;;;;;8.73;2.25;;;7.90;99.90;;;;;;5075190;28;20052;-91
2020/12/02 00:52:58;;;;;;;10.00;3.05;;;7.90;99.90;;;;;;5062601;28;20072;-91
2020/12/02 00:55:26;;;;;;;8.50;2.72;;;7.90;99.90;;;;;;5062975;28;20049;-91
2020/12/02 00:57:55;;;;;;;9.07;3.00;;;7.90;99.90;;;;;;5062481;28;20064;-91
2020/12/02 01:00:26;;;;;;;8.73;2.97;;;7.90;99.90;;;;;;5071350;28;20056;-91
2020/12/02 01:03:12;;;;;;;8.73;3.15;;;7.90;99.90;;;;;;5058491;28;20098;-90
2020/12/02 01:05:42;;;;;;;8.68;2.45;;;7.90;99.90;;;;;;5070890;28;20170;-91
2020/12/02 01:08:28;;;;;;;13.13;2.50;;;7.90;99.90;;;;;;5050490;28;20056;-91
2020/12/02 01:11:15;;;;;;;8.55;3.70;;;7.90;99.90;;;;;;5057158;28;20493;-91
2020/12/02 01:13:46;;;;;;;11.47;4.13;;;7.90;99.90;;;;;;5057732;28;20049;-90
2020/12/02 01:16:19;;;;;;;12.02;3.40;;;7.90;99.90;;;;;;5054250;28;20171;-91
2020/12/02 01:18:48;;;;;;;9.68;3.08;;;7.90;99.90;;;;;;5062371;28;20052;-91
2020/12/02 01:21:23;;;;;;;8.90;2.97;;;7.90;99.90;;;;;;5059927;28;20107;-91
2020/12/02 01:23:57;;;;;;;11.70;2.80;;;7.90;99.90;;;;;;5057842;28;20052;-91
2020/12/02 01:26:32;;;;;;;7.45;3.05;;;7.90;99.90;;;;;;5070431;28;20049;-91
2020/12/02 01:29:04;;;;;;;9.48;3.22;;;7.90;99.90;;;;;;5061074;28;20388;-92
2020/12/02 01:31:36;;;;;;;7.40;3.20;;;7.90;99.90;;;;;;5067223;28;20052;-91
2020/12/02 01:34:06;;;;;;;11.98;4.13;;;7.90;99.90;;;;;;5068354;28;20052;-91
2020/12/02 01:36:52;;;;;;;11.00;4.10;;;7.90;99.90;;;;;;5059136;28;20060;-91
2020/12/02 01:39:22;;;;;;;12.85;4.80;;;7.90;99.90;;;;;;5070124;28;20307;-91
2020/12/02 01:41:51;;;;;;;;;;;7.90;99.90;;;;;;5074319;28;20052;-91
2020/12/02 01:44:22;;;;;;;15.38;5.43;;;7.90;99.90;;;;;;5070487;28;20373;-91
2020/12/02 01:47:08;;;;;;;9.65;4.22;;;7.90;99.90;;;;;;5069706;28;20180;-91
2020/12/02 01:50:03;;;;;;;11.45;4.35;;;7.90;99.90;;;;;;5063764;28;20390;-91
2020/12/02 01:52:49;;;;;;;12.93;3.67;;;7.90;99.90;;;;;;5066801;28;20052;-91
2020/12/02 01:55:27;;;;;;;11.93;3.80;;;7.90;99.90;;;;;;5071328;28;20079;-91
2020/12/02 01:58:02;;;;;;;11.30;4.20;;;7.90;99.90;;;;;;5069226;28;20048;-90
2020/12/02 02:00:35;;;;;;;9.18;4.22;;;8.00;99.90;;;;;;5060054;28;20099;-91
2020/12/02 02:03:14;;;;;;;10.30;4.50;;;8.00;99.90;;;;;;5057139;28;20060;-91
2020/12/02 02:05:57;;;;;;;8.98;3.53;;;7.90;99.90;;;;;;5071954;28;20433;-92
2020/12/02 02:08:32;;;;;;;11.65;4.50;;;8.00;99.90;;;;;;5070243;28;20049;-91
2020/12/02 02:11:05;;;;;;;10.38;3.65;;;7.90;99.90;;;;;;5068598;28;20496;-91
2020/12/02 02:13:58;;;;;;;8.88;3.42;;;8.00;99.90;;;;;;5068550;28;20052;-91
2020/12/02 02:16:32;;;;;;;9.13;3.55;;;8.00;99.90;;;;;;5059525;28;20048;-91
2020/12/02 02:19:01;;;;;;;10.48;3.65;;;8.00;99.90;;;;;;5066317;28;20052;-91
2020/12/02 02:21:33;;;;;;;14.52;3.92;;;8.00;99.90;;;;;;5070624;28;20057;-91
2020/12/02 02:24:04;;;;;;;13.13;4.30;;;8.00;99.90;;;;;;5071841;28;20056;-91
2020/12/02 02:26:46;;;;;;;10.70;3.08;;;8.00;99.90;;;;;;5054200;28;20128;-91
2020/12/02 02:29:27;;;;;;;7.10;2.83;;;7.90;99.90;;;;;;5072768;28;20448;-91
2020/12/02 02:32:08;;;;;;;7.82;2.30;;;7.90;99.90;;;;;;5073218;28;20131;-91
2020/12/02 02:34:46;;;;;;;10.57;2.80;;;7.90;99.90;;;;;;5068037;28;20060;-91
2020/12/02 02:37:15;;;;;;;8.65;2.67;;;7.90;99.90;;;;;;5067927;28;20054;-91
2020/12/02 02:39:45;;;;;;;7.80;2.33;;;7.90;99.90;;;;;;5070212;28;20072;-91
2020/12/02 02:42:46;;;;;;;10.25;2.42;;;7.80;99.90;;;;;;5069552;28;20052;-91
2020/12/02 02:45:25;;;;;;;5.57;1.83;;;7.90;99.90;;;;;;5060503;28;20381;-90
2020/12/02 02:47:55;;;;;;;6.72;2.55;;;7.90;99.90;;;;;;5056516;28;20040;-91
2020/12/02 02:50:25;;;;;;;7.53;2.65;;;7.80;99.90;;;;;;5069993;28;20140;-91
2020/12/02 02:52:55;;;;;;;7.18;2.42;;;7.80;99.90;;;;;;5064560;28;20099;-91
2020/12/02 02:55:26;;;;;;;8.98;2.67;;;7.90;99.90;;;;;;5064597;28;20482;-91
2020/12/02 02:57:58;;;;;;;7.15;2.08;;;7.80;99.90;;;;;;5063115;28;20041;-90
2020/12/02 03:00:29;;;;;;;7.55;2.15;;;7.80;99.90;;;;;;5060449;28;20136;-91
2020/12/02 03:03:00;;;;;;;7.95;2.25;;;7.80;99.90;;;;;;5056151;28;20044;-91
2020/12/02 03:05:28;;;;;;;9.55;2.30;;;7.80;99.90;;;;;;5073182;28;20052;-91
2020/12/02 03:07:59;;;;;;;7.25;2.20;;;7.80;99.90;;;;;;5068294;28;20075;-91
2020/12/02 03:10:32;;;;;;;9.00;2.22;;;7.80;99.90;;;;;;5063714;28;20084;-91
2020/12/02 03:13:32;;;;;;;9.90;2.50;;;7.80;99.90;;;;;;5055291;28;20156;-91
2020/12/02 03:16:07;;;;;;;8.27;2.30;;;7.80;99.90;;;;;;5053620;28;20049;-91
2020/12/02 03:18:37;;;;;;;9.73;2.15;;;7.80;99.90;;;;;;5057484;28;20127;-91
2020/12/02 03:21:13;;;;;;;8.15;1.80;;;7.80;99.90;;;;;;5072169;28;20427;-91
2020/12/02 03:23:44;;;;;;;7.20;1.65;;;7.80;99.90;;;;;;5056173;28;20063;-91
2020/12/02 03:26:12;;;;;;;5.78;1.67;;;7.80;99.90;;;;;;5072596;28;20056;-91
2020/12/02 03:28:43;;;;;;;8.25;1.60;;;7.80;99.90;;;;;;5057041;28;20052;-91
2020/12/02 03:31:12;;;;;;;;;;;7.80;99.90;;;;;;5063077;28;20067;-92
2020/12/02 03:33:40;;;;;;;7.63;2.45;;;7.80;99.90;;;;;;5066738;28;19921;-91
2020/12/02 03:36:14;;;;;;;5.90;1.65;;;7.80;99.90;;;;;;5072265;28;20056;-91
2020/12/02 03:38:45;;;;;;;4.68;1.77;;;7.80;99.90;;;;;;5072470;28;20060;-91
2020/12/02 03:41:14;;;;;;;6.85;1.60;;;7.80;99.90;;;;;;5068335;28;20048;-91
2020/12/02 03:43:44;;;;;;;7.30;1.58;;;7.80;99.90;;;;;;5061510;28;20063;-91
2020/12/02 03:46:13;;;;;;;5.88;1.73;;;7.90;99.90;;;;;;5054696;28;20140;-91
2020/12/02 03:48:43;;;;;;;7.07;1.75;;;7.90;99.90;;;;;;5060806;28;20052;-91
2020/12/02 03:51:12;;;;;;;7.82;1.88;;;7.90;99.90;;;;;;5058516;28;20053;-91
2020/12/02 03:53:42;;;;;;;9.85;2.05;;;7.90;99.90;;;;;;5056217;28;20057;-91
2020/12/02 03:56:14;;;;;;;8.52;1.90;;;7.90;99.90;;;;;;5068403;28;20439;-91
2020/12/02 03:58:43;;;;;;;7.90;1.73;;;7.90;99.90;;;;;;5064657;28;20048;-91
2020/12/02 04:01:12;;;;;;;;;;;7.90;99.90;;;;;;5065571;28;20045;-91
2020/12/02 04:03:41;;;;;;;10.50;2.03;;;7.90;99.90;;;;;;5061404;28;19920;-91
2020/12/02 04:06:10;;;;;;;7.13;1.40;;;7.90;99.90;;;;;;5073814;28;20056;-90
2020/12/02 04:08:40;;;;;;;9.30;1.80;;;7.90;99.90;;;;;;5059456;28;20045;-89
2020/12/02 04:11:10;;;;;;;6.28;1.67;;;7.90;99.90;;;;;;5074841;28;20052;-91
2020/12/02 04:13:40;;;;;;;6.22;1.58;;;7.90;99.90;;;;;;5071224;28;20052;-91
2020/12/02 04:16:09;;;;;;;10.25;2.17;;;7.90;99.90;;;;;;5072692;28;20056;-91
2020/12/02 04:18:37;;;;;;;6.82;1.33;;;7.90;99.90;;;;;;5073734;28;20056;-91
2020/12/02 04:21:06;;;;;;;7.75;1.45;;;7.90;99.90;;;;;;5060610;28;20068;-91
2020/12/02 04:23:35;;;;;;;6.05;1.80;;;7.90;99.90;;;;;;5059203;28;20088;-91
2020/12/02 04:26:03;;;;;;;4.32;1.50;;;7.90;99.90;;;;;;5070947;28;20048;-91
2020/12/02 04:28:32;;;;;;;5.00;1.23;;;7.90;99.90;;;;;;5072866;28;20060;-91
2020/12/02 04:31:00;;;;;;;;;;;7.90;99.90;;;;;;5065265;28;20045;-91
2020/12/02 04:33:29;;;;;;;8.20;1.95;;;7.90;99.90;;;;;;5048644;28;19922;-90
2020/12/02 04:35:58;;;;;;;4.93;1.40;;;7.90;99.90;;;;;;5073756;28;20049;-91
2020/12/02 04:38:27;;;;;;;9.55;1.52;;;7.90;99.90;;;;;;5059189;28;20057;-90
2020/12/02 04:40:55;;;;;;;5.47;1.30;;;7.90;99.90;;;;;;5063736;28;20051;-91
2020/12/02 04:43:34;;;;;;;9.38;1.40;;;7.90;99.90;;;;;;5066696;28;20509;-90
2020/12/02 04:46:09;;;;;;;4.05;1.10;;;7.90;99.90;;;;;;5064819;28;20424;-90
2020/12/02 04:48:38;;;;;;;5.15;1.25;;;7.90;99.90;;;;;;5060585;28;20072;-90
2020/12/02 04:51:18;;;;;;;6.65;1.45;;;8.00;99.90;;;;;;5074174;28;20056;-91
2020/12/02 04:53:51;;;;;;;4.32;1.50;;;8.00;99.90;;;;;;5058567;28;20478;-91
2020/12/02 04:56:20;;;;;;;4.20;1.40;;;8.00;99.90;;;;;;5070684;28;20401;-91
2020/12/02 04:58:51;;;;;;;5.88;1.63;;;8.00;99.90;;;;;;5057278;28;20057;-91
2020/12/02 05:01:30;;;;;;;8.82;1.52;;;8.00;99.90;;;;;;5062130;28;20073;-91
2020/12/02 05:04:03;;;;;;;4.07;1.43;;;8.00;99.90;;;;;;5063313;28;20123;-91
2020/12/02 05:06:43;;;;;;;8.30;1.48;;;8.00;99.90;;;;;;5063405;28;20052;-90
2020/12/02 05:09:24;;;;;;;6.25;1.60;;;8.10;99.90;;;;;;5074480;28;20500;-91
2020/12/02 05:12:04;;;;;;;6.05;1.20;;;8.10;99.90;;;;;;5057736;28;20060;-91
2020/12/02 05:14:37;;;;;;;8.35;1.73;;;8.10;99.90;;;;;;5074395;28;20131;-90
2020/12/02 05:17:16;;;;;;;4.90;1.63;;;8.10;99.90;;;;;;5074898;28;20061;-91
2020/12/02 05:19:48;;;;;;;4.93;2.00;;;8.00;99.90;;;;;;5068905;28;20078;-91
2020/12/02 05:22:17;;;;;;;5.82;1.80;;;8.00;99.90;;;;;;5069250;28;20064;-91
2020/12/02 05:24:51;;;;;;;8.82;2.10;;;8.00;99.90;;;;;;5068369;28;20056;-91
2020/12/02 05:27:28;;;;;;;5.47;1.75;;;8.00;99.90;;;;;;5071277;28;20048;-91
2020/12/02 05:30:20;;;;;;;6.77;1.93;;;8.00;99.90;;;;;;5057793;28;20488;-91
2020/12/02 05:33:15;;;;;;;7.10;1.92;;;7.90;99.90;;;;;;5073191;28;20521;-91
2020/12/02 05:35:59;;;;;;;6.65;1.70;;;7.90;99.90;;;;;;5071163;28;20114;-91
2020/12/02 05:38:32;;;;;;;7.57;1.77;;;7.90;99.90;;;;;;5070498;28;20445;-90
2020/12/02 05:41:02;;;;;;;6.53;1.45;;;7.80;99.90;;;;;;5069867;28;20049;-91
2020/12/02 05:43:45;;;;;;;7.10;1.60;;;7.80;99.90;;;;;;5059070;28;20081;-91
2020/12/02 05:46:37;;;;;;;4.38;1.30;;;7.80;99.90;;;;;;5062351;28;20048;-90
2020/12/02 05:49:43;;;;;;;9.18;1.33;;;7.80;99.90;;;;;;5061887;28;20056;-91
2020/12/02 05:52:38;;;;;;;4.90;1.38;;;7.90;99.90;;;;;;4956462;28;20615;-91
2020/12/02 05:55:11;;;;;;;5.25;1.27;;;7.90;99.90;;;;;;4967109;28;20046;-91
2020/12/02 05:57:53;;;;;;;3.53;1.25;;;7.90;99.90;;;;;;4953699;28;20062;-91
2020/12/02 06:00:21;;;;;;;5.68;1.50;;;7.90;99.90;;;;;;4955008;28;20142;-91
2020/12/02 06:02:53;;;;;;;6.68;1.73;;;7.90;99.90;;;;;;4957987;28;20047;-91
2020/12/02 06:05:24;;;;;;;4.32;1.23;;;8.00;99.90;;;;;;4943519;29;20058;-92
2020/12/02 06:07:58;;;;;;;9.25;2.25;;;8.00;99.90;;;;;;4969269;28;20050;-91
2020/12/02 06:10:43;;;;;;;4.75;1.58;;;8.00;99.90;;;;;;4966020;28;20142;-90
2020/12/02 06:13:33;;;;;;;3.95;1.35;;;8.00;99.90;;;;;;4951631;28;20133;-91
2020/12/02 06:16:02;;;;;;;5.00;1.33;;;8.00;99.90;;;;;;4969650;28;20054;-89
2020/12/02 06:18:38;;;;;;;3.50;1.40;;;8.00;99.90;;;;;;4973489;28;20493;-93
2020/12/02 06:21:41;;;;;;;5.13;1.60;;;8.00;99.90;;;;;;4957984;28;20059;-92
2020/12/02 06:24:21;;;;;;;4.20;1.25;;;8.00;99.90;;;;;;4959259;28;20062;-92
2020/12/02 06:26:55;;;;;;;7.70;1.58;;;8.00;99.90;;;;;;4974233;28;20398;-92
2020/12/02 06:29:37;;;;;;;6.88;1.38;;;8.00;99.90;;;;;;5028640;28;20446;-92
2020/12/02 06:32:21;;;;;;;3.92;1.20;;;8.00;99.90;;;;;;5068084;28;20075;-92
2020/12/02 06:35:16;;;;;;;6.18;1.63;;;8.00;99.90;;;;;;5055661;28;20433;-91
2020/12/02 06:38:26;;;;;;;2.35;0.93;;;8.10;99.90;;;;;;5069065;28;20090;-93
2020/12/02 06:40:59;;;;;;;4.28;0.98;;;8.00;99.90;;;;;;5086619;28;20052;-92
2020/12/02 06:43:35;;;;;;;6.55;1.40;;;8.10;99.90;;;;;;5068712;28;20413;-91
2020/12/02 06:46:11;;;;;;;;;;;8.10;99.90;;;;;;5068145;28;20470;-91
2020/12/02 06:48:41;;;;;;;7.85;1.13;;;8.10;99.90;;;;;;5063470;28;19959;-91
2020/12/02 06:51:16;;;;;;;4.13;1.33;;;8.10;99.90;;;;;;5071818;28;20045;-91
2020/12/02 06:53:54;;;;;;;8.88;1.65;;;8.10;99.90;;;;;;5073767;28;20048;-91
2020/12/02 06:56:24;;;;;;;4.25;1.30;;;8.10;99.90;;;;;;5069245;28;20048;-91
2020/12/02 06:59:07;;;;;;;6.07;1.15;;;8.10;99.90;;;;;;5067136;28;20470;-92
2020/12/02 07:01:41;;;;;;;5.50;1.63;;;8.20;99.90;;;;;;5068917;28;20143;-92
2020/12/02 07:04:22;;;;;;;3.08;1.17;;;8.20;99.90;;;;;;5069364;28;20054;-91
2020/12/02 07:07:01;;;;;;;9.15;1.00;;;8.20;99.90;;;;;;5068395;28;20505;-90
2020/12/02 07:09:32;;;;;;;7.85;2.22;;;8.20;99.90;;;;;;5061304;28;20481;-92
2020/12/02 07:12:06;;;;;;;7.47;2.00;;;8.20;99.90;;;;;;5057704;28;20063;-91
2020/12/02 07:14:42;;;;;;;6.45;1.25;;;8.20;99.90;;;;;;5056644;28;20049;-90
2020/12/02 07:17:12;;;;;;;7.82;2.10;;;8.20;99.90;;;;;;5088074;28;20063;-90
2020/12/02 07:19:43;;;;;;;8.23;1.42;;;8.20;99.90;;;;;;5064425;28;20091;-89
2020/12/02 07:22:31;;;;;;;2.95;1.10;;;8.20;99.90;;;;;;5064060;28;20102;-90
2020/12/02 07:25:04;;;;;;;3.97;1.30;;;8.20;99.90;;;;;;5050238;28;20489;-90
2020/12/02 07:27:44;;;;;;;5.30;1.55;;;8.30;99.90;;;;;;5061986;28;20405;-90
2020/12/02 07:30:40;;;;;;;5.20;1.67;;;8.20;99.90;;;;;;5060364;28;20053;-90
2020/12/02 07:33:11;;;;;;;5.57;1.80;;;8.30;99.90;;;;;;5059295;28;20466;-90
2020/12/02 07:35:40;;;;;;;3.97;1.20;;;8.30;99.90;;;;;;5065752;28;20129;-90
2020/12/02 07:38:12;;;;;;;5.38;1.20;;;8.20;99.90;;;;;;5064012;28;20044;-90
2020/12/02 07:40:41;;;;;;;6.85;2.45;;;8.20;99.90;;;;;;5065439;28;20053;-90
2020/12/02 07:43:24;;;;;;;6.50;1.55;;;8.30;99.90;;;;;;5065211;28;20055;-89
2020/12/02 07:45:55;;;;;;;4.22;1.73;;;8.20;99.90;;;;;;5065004;28;20144;-91
2020/12/02 07:48:27;;;;;;;8.88;1.60;;;8.20;99.90;;;;;;5071993;28;20397;-90
2020/12/02 07:51:04;;;;;;;5.15;1.48;;;8.20;99.90;;;;;;5065817;28;20056;-90
2020/12/02 07:53:36;;;;;;;5.78;1.67;;;8.20;99.90;;;;;;5071908;28;20420;-90
2020/12/02 07:56:07;;;;;;;4.93;1.75;;;8.20;99.90;;;;;;5058988;28;20520;-90
2020/12/02 07:58:39;;;;;;;7.82;1.88;;;8.20;99.90;;;;;;5061526;28;20049;-88
2020/12/02 08:01:21;;;;;;;6.95;2.05;;;8.20;99.90;;;;;;5059344;28;20048;-90
2020/12/02 08:03:49;;;;;;;4.45;1.63;;;8.20;99.90;;;;;;5068250;28;20061;-90
2020/12/02 08:06:41;;;;;;;6.10;1.20;;;8.20;99.90;;;;;;5061877;28;20119;-89
2020/12/02 08:09:08;;;;;;;7.32;1.45;;;8.20;99.90;;;;;;5064303;28;20080;-91
2020/12/02 08:12:01;;;;;;;6.60;1.63;;;8.20;99.90;;;;;;5063815;28;20074;-90
2020/12/02 08:14:42;;;;;;;9.18;1.40;;;8.20;99.90;;;;;;5070127;28;20056;-90
2020/12/02 08:17:21;;;;;;;11.48;1.80;;;8.30;99.90;;;;;;5059718;28;20131;-91
2020/12/02 08:19:52;;;;;;;8.35;1.70;;;8.30;99.90;;;;;;5063653;28;20064;-91
2020/12/02 08:22:30;;;;;;;12.80;1.42;;;8.30;99.90;;;;;;5064048;28;20052;-91
2020/12/02 08:25:29;;;;;;;8.30;1.60;;;8.30;99.90;;;;;;5063971;28;20094;-91
2020/12/02 08:28:06;;;;;;;6.45;1.48;;;8.30;99.90;;;;;;4984727;28;20112;-91
2020/12/02 08:30:35;;;;;;;8.95;1.40;;;8.30;99.90;;;;;;4985975;28;20639;-91
2020/12/02 08:33:10;;;;;;;13.60;2.17;;;8.30;99.90;;;;;;5012117;28;20057;-91
2020/12/02 08:35:50;;;;;;;6.57;1.42;;;8.30;99.90;;;;;;4979362;28;20058;-90
2020/12/02 08:38:26;;;;;;;9.88;2.35;;;8.30;99.90;;;;;;4983701;28;20046;-90
2020/12/02 08:40:57;;;;;;;7.03;1.55;;;8.30;99.90;;;;;;4996955;28;20058;-91
2020/12/02 08:43:46;;;;;;;9.80;1.90;;;8.30;99.90;;;;;;5001050;28;20480;-91
2020/12/02 08:46:14;;;;;;;14.95;2.30;;;8.30;99.90;;;;;;4980853;28;20054;-90
2020/12/02 08:48:46;;;;;;;12.32;2.08;;;8.30;99.90;;;;;;5001937;28;20533;-92
2020/12/02 08:51:19;;;;;;;12.27;1.65;;;8.30;99.90;;;;;;4995539;28;20488;-92
2020/12/02 08:53:48;;;;;;;14.13;2.20;;;8.40;99.90;;;;;;5013619;28;20089;-91
2020/12/02 08:56:26;;;;;;;10.77;2.42;;;8.40;99.90;;;;;;4983389;28;20077;-91
2020/12/02 08:58:56;;;;;;;7.60;1.77;;;8.40;99.90;;;;;;5002862;28;20475;-91
2020/12/02 09:01:26;;;;;;;7.93;1.75;;;8.40;99.90;;;;;;4993223;28;20049;-91
2020/12/02 09:03:55;;;;;;;9.05;2.05;;;8.40;99.90;;;;;;4999339;28;20056;-91
2020/12/02 09:06:26;;;;;;;12.60;2.30;;;8.50;99.90;;;;;;5062566;28;20045;-91
2020/12/02 09:08:56;;;;;;;13.15;2.10;;;8.50;99.90;;;;;;5056587;28;20387;-91
2020/12/02 09:11:36;;;;;;;9.60;2.15;;;8.50;99.90;;;;;;5057485;28;20083;-90
2020/12/02 09:14:06;;;;;;;13.60;1.90;;;8.60;99.90;;;;;;5069314;28;20045;-91
2020/12/02 09:16:38;;;;;;;5.22;1.90;;;8.60;99.90;;;;;;5065107;28;20055;-91
2020/12/02 09:19:09;;;;;;;9.02;2.00;;;8.60;99.90;;;;;;5064398;28;20135;-92
2020/12/02 09:21:46;;;;;;;15.05;2.50;;;8.70;99.90;;;;;;5072406;28;20131;-91
2020/12/02 09:24:18;;;;;;;6.65;2.08;;;8.70;99.90;;;;;;5073508;28;20143;-90
2020/12/02 09:26:48;;;;;;;9.82;2.55;;;8.70;99.90;;;;;;5057526;28;20109;-90
2020/12/02 09:29:19;;;;;;;9.88;3.10;;;8.70;99.90;;;;;;5059509;28;20071;-91
2020/12/02 09:31:48;;;;;;;8.90;2.78;;;8.80;99.90;;;;;;5062238;28;20084;-91
2020/12/02 09:34:18;;;;;;;10.40;2.42;;;8.80;99.90;;;;;;5068720;28;20379;-91
2020/12/02 09:36:49;;;;;;;6.22;1.60;;;8.70;99.90;;;;;;5070281;28;20055;-91
2020/12/02 09:39:17;;;;;;;;;;;8.80;99.90;;;;;;5060931;28;20505;-91
2020/12/02 09:42:05;;;;;;;8.40;1.63;;;8.80;99.90;;;;;;5057537;28;19928;-91
2020/12/02 09:44:42;;;;;;;4.88;1.25;;;8.80;99.90;;;;;;5071223;28;20052;-91
2020/12/02 09:47:16;;;;;;;7.80;1.63;;;8.90;99.90;;;;;;5088454;28;20072;-91
2020/12/02 09:49:48;;;;;;;6.07;1.42;;;8.90;99.90;;;;;;5068082;28;20549;-91
2020/12/02 09:52:30;;;;;;;7.30;1.33;;;9.00;99.90;;;;;;5068458;28;20087;-91
2020/12/02 09:55:00;;;;;;;7.57;2.03;;;9.00;99.90;;;;;;5062439;28;20045;-91
2020/12/02 09:57:30;;;;;;;7.13;1.50;;;9.10;99.90;;;;;;5063175;28;20044;-91
2020/12/02 10:00:01;;;;;;;7.03;1.40;;;9.10;99.90;;;;;;5065457;28;20055;-91
2020/12/02 10:02:36;;;;;;;10.02;1.88;;;9.20;99.90;;;;;;5062600;28;20087;-91
2020/12/02 10:05:26;;;;;;;9.65;1.80;;;9.20;99.90;;;;;;5056836;28;20483;-91
2020/12/02 10:08:31;;;;;;;5.03;2.10;;;9.30;99.90;;;;;;5055507;28;20056;-91
2020/12/02 10:11:19;;;;;;;5.55;1.83;;;9.30;99.90;;;;;;5062748;28;20048;-91
2020/12/02 10:14:24;;;;;;;6.10;1.88;;;9.40;99.90;;;;;;5054700;28;20060;-91
2020/12/02 10:17:29;;;;;;;5.55;1.55;;;9.50;99.90;;;;;;5057064;28;20095;-91
2020/12/02 10:20:09;;;;;;;9.55;2.08;;;9.60;99.90;;;;;;4995875;28;20050;-91
2020/12/02 10:22:48;;;;;;;9.65;2.13;;;9.70;99.90;;;;;;4993021;28;20057;-91
2020/12/02 10:25:51;;;;;;;5.85;2.42;;;9.70;99.90;;;;;;4994635;28;20105;-91
2020/12/02 10:28:30;;;;;;;8.52;2.70;;;9.80;99.90;;;;;;4973437;28;20059;-91
2020/12/02 10:31:18;;;;;;;6.88;2.72;;;9.90;99.90;;;;;;4971719;28;20465;-91
2020/12/02 10:33:59;;;;;;;9.65;1.85;;;9.90;99.90;;;;;;4972686;28;20071;-90
2020/12/02 10:36:35;;;;;;;7.00;1.73;;;10.00;99.90;;;;;;4957272;28;20055;-91
2020/12/02 10:39:11;;;;;;;9.00;1.42;;;10.10;99.90;;;;;;4958416;28;20105;-92
2020/12/02 10:42:25;;;;;;;7.32;1.40;;;10.20;99.90;;;;;;4957558;28;20074;-92
2020/12/02 10:45:10;;;;;;;7.40;1.98;;;10.30;99.90;;;;;;4880935;29;20056;-92
2020/12/02 10:47:53;;;;;;;8.88;2.28;;;10.40;99.90;;;;;;4881509;29;20052;-91
2020/12/02 10:50:25;;;;;;;6.05;1.77;;;10.50;99.90;;;;;;4882171;29;20060;-92
2020/12/02 10:52:55;;;;;;;8.40;2.15;;;10.60;99.90;;;;;;4874889;29;20511;-92
2020/12/02 10:55:32;;;;;;;5.85;1.55;;;10.60;99.90;;;;;;4879671;29;20131;-94
2020/12/02 10:58:05;;;;;;;9.63;2.40;;;10.70;99.90;;;;;;4911859;29;20131;-91
2020/12/02 11:00:36;;;;;;;8.57;2.10;;;10.70;99.90;;;;;;4932378;29;20073;-89
2020/12/02 11:03:30;;;;;;;7.47;2.50;;;10.70;99.90;;;;;;4904033;29;20048;-91
2020/12/02 11:06:27;;;;;;;9.57;2.20;;;10.70;99.90;;;;;;4971681;28;20050;-91
2020/12/02 11:09:24;;;;;;;12.48;2.30;;;10.80;99.90;;;;;;4959374;28;20134;-91
2020/12/02 11:12:18;;;;;;;15.32;2.70;;;10.80;99.90;;;;;;4960626;28;20551;-91
2020/12/02 11:15:07;;;;;;;14.32;2.97;;;10.90;99.90;;;;;;4959792;28;20121;-91
2020/12/02 11:18:13;;;;;;;6.15;1.92;;;10.80;99.90;;;;;;4958371;28;20059;-91
2020/12/02 11:21:07;;;;;;;9.63;2.10;;;10.90;99.90;;;;;;4978679;28;20400;-91
2020/12/02 11:23:53;;;;;;;7.13;2.08;;;10.90;99.90;;;;;;4998107;28;20093;-91
2020/12/02 11:26:26;;;;;;;10.82;2.30;;;10.90;99.90;;;;;;4981111;28;20194;-91
2020/12/02 11:28:57;;;;;;;8.43;2.28;;;10.90;99.90;;;;;;4988978;28;20059;-91
2020/12/02 11:31:46;;;;;;;9.57;2.20;;;11.00;99.90;;;;;;5007020;28;20085;-91
2020/12/02 11:34:53;;;;;;;12.38;2.30;;;11.00;99.90;;;;;;4995953;28;20042;-91
2020/12/02 11:37:54;;;;;;;5.90;1.77;;;11.10;99.90;;;;;;5001103;28;20057;-91
2020/12/02 11:40:42;;;;;;;9.05;2.28;;;11.10;99.90;;;;;;5015542;28;20054;-90
2020/12/02 11:43:23;;;;;;;8.80;2.22;;;11.20;99.90;;;;;;5019431;28;20050;-91
2020/12/02 11:45:56;;;;;;;10.55;2.10;;;11.20;99.90;;;;;;5067740;28;20078;-90
2020/12/02 11:48:40;;;;;;;6.18;1.77;;;11.20;99.90;;;;;;5075829;28;20049;-91
2020/12/02 11:51:35;;;;;;;11.13;2.35;;;11.30;99.90;;;;;;5073498;28;20053;-91
2020/12/02 11:54:12;;;;;;;6.80;2.17;;;11.30;99.90;;;;;;5059331;28;20555;-91
2020/12/02 11:56:52;;;;;;;9.63;2.40;;;11.40;99.90;;;;;;5074388;28;20056;-91
2020/12/02 11:59:27;;;;;;;9.10;2.50;;;11.40;99.90;;;;;;5071613;28;20049;-91
2020/12/02 12:02:04;;;;;;;8.60;2.50;;;11.50;99.90;;;;;;5059668;28;20056;-91
2020/12/02 12:04:33;;;;;;;9.00;1.92;;;11.50;99.90;;;;;;5068306;28;20075;-90
2020/12/02 12:07:10;;;;;;;12.27;2.63;;;11.50;99.90;;;;;;5070724;28;20045;-90
2020/12/02 12:09:42;;;;;;;12.80;2.63;;;11.60;99.90;;;;;;5060893;28;20307;-93
2020/12/02 12:12:25;;;;;;;5.43;2.95;;;11.60;99.90;;;;;;5073767;28;20379;-91
2020/12/02 12:15:17;;;;;;;9.20;2.40;;;11.60;99.90;;;;;;5075289;28;20067;-91
2020/12/02 12:17:49;;;;;;;7.95;2.38;;;11.70;99.90;;;;;;5074085;28;20057;-91
2020/12/02 12:20:22;;;;;;;10.93;2.00;;;11.70;99.90;;;;;;5059994;28;20546;-91
2020/12/02 12:23:28;;;;;;;7.97;2.20;;;11.70;99.90;;;;;;5074788;28;20048;-91
2020/12/02 12:25:57;;;;;;;6.30;1.70;;;11.70;99.90;;;;;;5071028;28;20041;-91
2020/12/02 12:28:29;;;;;;;9.38;2.50;;;11.60;99.90;;;;;;5061253;28;20132;-91
2020/12/02 12:31:05;;;;;;;10.05;2.03;;;11.60;99.90;;;;;;5064118;28;20059;-91
2020/12/02 12:33:43;;;;;;;8.68;1.80;;;11.60;99.90;;;;;;5063842;28;20070;-91
2020/12/02 12:36:20;;;;;;;8.95;2.25;;;11.70;99.90;;;;;;5059613;28;20053;-90
2020/12/02 12:38:53;;;;;;;6.22;1.80;;;11.70;99.90;;;;;;5059184;28;20717;-91
2020/12/02 12:41:48;;;;;;;8.90;1.90;;;11.70;99.90;;;;;;5060524;28;20075;-91
2020/12/02 12:44:36;;;;;;;13.02;7.20;;;11.60;99.90;;;;;;5075733;28;20071;-91
2020/12/02 12:47:24;;;;;;;10.90;6.65;;;11.60;99.90;;;;;;5070521;28;20052;-90
2020/12/02 12:49:56;;;;;;;15.50;5.68;;;11.50;99.90;;;;;;5071466;28;20052;-91
2020/12/02 12:52:29;;;;;;;9.85;2.78;;;11.50;99.90;;;;;;5060712;28;20061;-91
2020/12/02 12:54:58;;;;;;;11.43;3.38;;;11.40;99.90;;;;;;5081919;28;20474;-91
2020/12/02 12:57:28;;;;;;;10.52;3.08;;;11.40;99.90;;;;;;5071566;28;20059;-91
2020/12/02 12:59:59;;;;;;;9.23;2.60;;;11.40;99.90;;;;;;5059599;28;20054;-91
2020/12/02 13:02:36;;;;;;;8.70;2.15;;;11.50;99.90;;;;;;5055780;28;20084;-91
2020/12/02 13:05:10;;;;;;;11.25;2.15;;;11.50;99.90;;;;;;5062379;28;20114;-91
2020/12/02 13:07:50;;;;;;;9.70;2.45;;;11.40;99.90;;;;;;5063234;28;20148;-90
2020/12/02 13:10:33;;;;;;;10.38;2.70;;;11.50;99.90;;;;;;5063105;28;20098;-91
2020/12/02 13:13:28;;;;;;;12.82;2.08;;;11.40;99.90;;;;;;5062718;28;20041;-91
2020/12/02 13:16:18;;;;;;;14.50;2.80;;;11.40;99.90;;;;;;5065108;28;20055;-91
2020/12/02 13:19:11;;;;;;;10.48;2.15;;;11.40;99.90;;;;;;5062106;28;20437;-91
2020/12/02 13:21:46;;;;;;;11.40;1.95;;;11.50;99.90;;;;;;5059255;28;20045;-91
2020/12/02 13:24:37;;;;;;;13.73;2.10;;;11.50;99.90;;;;;;5071100;28;20055;-89
2020/12/02 13:27:26;;;;;;;8.07;2.13;;;11.60;99.90;;;;;;5057913;28;20044;-89
2020/12/02 13:30:15;;;;;;;8.88;1.55;;;11.60;99.90;;;;;;5071865;28;20056;-88
2020/12/02 13:33:10;;;;;;;12.18;1.90;;;11.60;99.90;;;;;;5087164;28;20414;-89
2020/12/02 13:35:38;;;;;;;10.25;1.83;;;11.60;99.90;;;;;;5070547;28;20375;-89
2020/12/02 13:38:10;;;;;;;5.72;1.08;;;11.60;99.90;;;;;;5063447;28;20081;-90
2020/12/02 13:40:38;;;;;;;5.47;1.50;;;11.50;99.90;;;;;;5062596;28;20106;-90
2020/12/02 13:43:23;;;;;;;9.00;1.40;;;11.50;99.90;;;;;;5065993;28;20071;-91
2020/12/02 13:45:56;;;;;;;8.57;1.10;;;11.50;99.90;;;;;;5067249;28;20491;-91